sensor_id;sensor_type;location;lat;lon;timestamp;P1;durP1;ratioP1;P2;durP2;ratioP2
62679;SDS011;48746;55.578;37.902;2022-11-15T00:04:50;2.50;;;1.05;;
62679;SDS011;48746;55.578;37.902;2022-11-15T00:07:35;3.55;;;0.75;;
62679;SDS011;48746;55.578;37.902;2022-11-15T00:10:22;4.28;;;0.73;;
62679;SDS011;48746;55.578;37.902;2022-11-15T00:13:09;3.38;;;1.30;;
62679;SDS011;48746;55.578;37.902;2022-11-15T00:15:59;4.38;;;0.88;;
62679;SDS011;48746;55.578;37.902;2022-11-15T00:18:44;1.42;;;0.82;;
62679;SDS011;48746;55.578;37.902;2022-11-15T00:21:29;2.28;;;0.90;;
62679;SDS011;48746;55.578;37.902;2022-11-15T00:24:14;1.95;;;0.90;;
62679;SDS011;48746;55.578;37.902;2022-11-15T00:26:58;1.05;;;0.57;;
62679;SDS011;48746;55.578;37.902;2022-11-15T00:29:47;6.10;;;0.95;;
62679;SDS011;48746;55.578;37.902;2022-11-15T00:32:31;3.95;;;0.98;;
62679;SDS011;48746;55.578;37.902;2022-11-15T00:35:17;2.97;;;0.90;;
62679;SDS011;48746;55.578;37.902;2022-11-15T00:38:02;3.38;;;0.90;;
62679;SDS011;48746;55.578;37.902;2022-11-15T00:44:28;1.92;;;0.80;;
62679;SDS011;48746;55.578;37.902;2022-11-15T00:47:13;2.58;;;0.85;;
62679;SDS011;48746;55.578;37.902;2022-11-15T00:53:24;3.40;;;1.13;;
62679;SDS011;48746;55.578;37.902;2022-11-15T00:56:09;7.53;;;1.25;;
62679;SDS011;48746;55.578;37.902;2022-11-15T00:58:54;1.88;;;1.02;;
62679;SDS011;48746;55.578;37.902;2022-11-15T01:05:04;4.95;;;1.20;;
62679;SDS011;48746;55.578;37.902;2022-11-15T01:07:52;2.42;;;1.00;;
62679;SDS011;48746;55.578;37.902;2022-11-15T01:10:41;3.65;;;1.20;;
62679;SDS011;48746;55.578;37.902;2022-11-15T01:13:28;3.33;;;1.00;;
62679;SDS011;48746;55.578;37.902;2022-11-15T01:16:16;2.22;;;0.90;;
62679;SDS011;48746;55.578;37.902;2022-11-15T01:19:02;5.72;;;1.20;;
62679;SDS011;48746;55.578;37.902;2022-11-15T01:21:50;4.28;;;1.30;;
62679;SDS011;48746;55.578;37.902;2022-11-15T01:24:36;3.10;;;1.00;;
62679;SDS011;48746;55.578;37.902;2022-11-15T01:27:20;3.40;;;1.30;;
62679;SDS011;48746;55.578;37.902;2022-11-15T01:33:46;1.20;;;0.87;;
62679;SDS011;48746;55.578;37.902;2022-11-15T01:36:32;1.60;;;0.98;;
62679;SDS011;48746;55.578;37.902;2022-11-15T01:39:17;2.40;;;1.10;;
62679;SDS011;48746;55.578;37.902;2022-11-15T01:42:02;4.45;;;0.90;;
62679;SDS011;48746;55.578;37.902;2022-11-15T01:44:47;4.95;;;1.30;;
62679;SDS011;48746;55.578;37.902;2022-11-15T01:47:37;5.28;;;1.30;;
62679;SDS011;48746;55.578;37.902;2022-11-15T01:53:50;5.30;;;1.05;;
62679;SDS011;48746;55.578;37.902;2022-11-15T01:56:38;4.32;;;1.48;;
62679;SDS011;48746;55.578;37.902;2022-11-15T01:59:30;9.27;;;1.30;;
62679;SDS011;48746;55.578;37.902;2022-11-15T02:02:15;6.40;;;1.77;;
62679;SDS011;48746;55.578;37.902;2022-11-15T02:05:00;10.27;;;1.73;;
62679;SDS011;48746;55.578;37.902;2022-11-15T02:07:45;5.68;;;1.40;;
62679;SDS011;48746;55.578;37.902;2022-11-15T02:10:33;6.05;;;1.25;;
62679;SDS011;48746;55.578;37.902;2022-11-15T02:13:18;10.80;;;1.70;;
62679;SDS011;48746;55.578;37.902;2022-11-15T02:22:57;4.35;;;1.55;;
62679;SDS011;48746;55.578;37.902;2022-11-15T02:44:45;4.13;;;1.10;;
62679;SDS011;48746;55.578;37.902;2022-11-15T02:47:30;2.83;;;1.40;;
62679;SDS011;48746;55.578;37.902;2022-11-15T02:50:21;3.33;;;1.02;;
62679;SDS011;48746;55.578;37.902;2022-11-15T02:53:08;3.33;;;0.93;;
62679;SDS011;48746;55.578;37.902;2022-11-15T02:55:54;10.48;;;1.40;;
62679;SDS011;48746;55.578;37.902;2022-11-15T03:04:44;7.38;;;1.50;;
62679;SDS011;48746;55.578;37.902;2022-11-15T03:19:47;7.18;;;1.40;;
62679;SDS011;48746;55.578;37.902;2022-11-15T03:22:36;14.95;;;1.83;;
62679;SDS011;48746;55.578;37.902;2022-11-15T03:25:24;6.90;;;1.48;;
62679;SDS011;48746;55.578;37.902;2022-11-15T03:28:12;4.22;;;1.38;;
62679;SDS011;48746;55.578;37.902;2022-11-15T03:31:02;3.22;;;0.70;;
62679;SDS011;48746;55.578;37.902;2022-11-15T03:34:08;8.20;;;1.20;;
62679;SDS011;48746;55.578;37.902;2022-11-15T03:36:55;12.07;;;1.48;;
62679;SDS011;48746;55.578;37.902;2022-11-15T03:39:40;11.13;;;1.52;;
62679;SDS011;48746;55.578;37.902;2022-11-15T03:42:33;5.20;;;0.98;;
62679;SDS011;48746;55.578;37.902;2022-11-15T03:45:40;10.20;;;1.70;;
62679;SDS011;48746;55.578;37.902;2022-11-15T03:48:36;13.50;;;1.55;;
62679;SDS011;48746;55.578;37.902;2022-11-15T03:51:31;2.92;;;1.25;;
62679;SDS011;48746;55.578;37.902;2022-11-15T03:54:17;4.63;;;1.38;;
62679;SDS011;48746;55.578;37.902;2022-11-15T03:57:02;8.43;;;1.00;;
62679;SDS011;48746;55.578;37.902;2022-11-15T03:59:50;10.55;;;1.98;;
62679;SDS011;48746;55.578;37.902;2022-11-15T04:02:35;10.93;;;1.30;;
62679;SDS011;48746;55.578;37.902;2022-11-15T04:05:20;5.68;;;1.88;;
62679;SDS011;48746;55.578;37.902;2022-11-15T04:08:04;12.45;;;1.35;;
62679;SDS011;48746;55.578;37.902;2022-11-15T04:10:52;6.85;;;1.77;;
62679;SDS011;48746;55.578;37.902;2022-11-15T04:13:37;6.40;;;1.40;;
62679;SDS011;48746;55.578;37.902;2022-11-15T04:16:22;8.93;;;1.45;;
62679;SDS011;48746;55.578;37.902;2022-11-15T04:19:07;10.95;;;1.40;;
62679;SDS011;48746;55.578;37.902;2022-11-15T04:22:11;10.38;;;1.35;;
62679;SDS011;48746;55.578;37.902;2022-11-15T04:25:15;4.85;;;1.17;;
62679;SDS011;48746;55.578;37.902;2022-11-15T04:27:59;10.73;;;1.60;;
62679;SDS011;48746;55.578;37.902;2022-11-15T04:34:09;3.65;;;1.10;;
62679;SDS011;48746;55.578;37.902;2022-11-15T04:36:53;11.20;;;1.40;;
62679;SDS011;48746;55.578;37.902;2022-11-15T04:39:59;5.13;;;1.13;;
62679;SDS011;48746;55.578;37.902;2022-11-15T04:42:44;11.43;;;1.23;;
62679;SDS011;48746;55.578;37.902;2022-11-15T04:45:30;5.43;;;1.48;;
62679;SDS011;48746;55.578;37.902;2022-11-15T04:48:14;15.30;;;1.90;;
62679;SDS011;48746;55.578;37.902;2022-11-15T04:50:59;7.85;;;1.58;;
62679;SDS011;48746;55.578;37.902;2022-11-15T04:53:44;10.63;;;1.50;;
62679;SDS011;48746;55.578;37.902;2022-11-15T04:56:29;14.38;;;1.80;;
62679;SDS011;48746;55.578;37.902;2022-11-15T04:59:14;8.70;;;2.47;;
62679;SDS011;48746;55.578;37.902;2022-11-15T05:01:59;4.55;;;1.20;;
62679;SDS011;48746;55.578;37.902;2022-11-15T05:04:44;19.38;;;2.08;;
62679;SDS011;48746;55.578;37.902;2022-11-15T05:07:30;8.98;;;1.50;;
62679;SDS011;48746;55.578;37.902;2022-11-15T05:10:17;13.40;;;1.67;;
62679;SDS011;48746;55.578;37.902;2022-11-15T05:13:02;10.13;;;1.48;;
62679;SDS011;48746;55.578;37.902;2022-11-15T05:15:47;27.92;;;2.75;;
62679;SDS011;48746;55.578;37.902;2022-11-15T05:18:32;7.90;;;2.42;;
62679;SDS011;48746;55.578;37.902;2022-11-15T05:21:20;14.23;;;2.03;;
62679;SDS011;48746;55.578;37.902;2022-11-15T05:24:05;10.10;;;1.65;;
62679;SDS011;48746;55.578;37.902;2022-11-15T05:26:50;7.97;;;1.40;;
62679;SDS011;48746;55.578;37.902;2022-11-15T05:33:01;8.18;;;1.50;;
62679;SDS011;48746;55.578;37.902;2022-11-15T05:35:46;12.50;;;1.52;;
62679;SDS011;48746;55.578;37.902;2022-11-15T05:38:35;8.05;;;1.42;;
62679;SDS011;48746;55.578;37.902;2022-11-15T05:44:46;3.20;;;1.45;;
62679;SDS011;48746;55.578;37.902;2022-11-15T05:47:32;29.45;;;2.90;;
62679;SDS011;48746;55.578;37.902;2022-11-15T05:50:20;20.33;;;2.97;;
62679;SDS011;48746;55.578;37.902;2022-11-15T05:53:05;10.93;;;1.70;;
62679;SDS011;48746;55.578;37.902;2022-11-15T05:55:50;5.40;;;1.23;;
62679;SDS011;48746;55.578;37.902;2022-11-15T05:58:36;12.75;;;2.65;;
62679;SDS011;48746;55.578;37.902;2022-11-15T06:01:21;12.52;;;2.10;;
62679;SDS011;48746;55.578;37.902;2022-11-15T06:04:06;10.73;;;3.58;;
62679;SDS011;48746;55.578;37.902;2022-11-15T06:06:51;11.40;;;1.67;;
62679;SDS011;48746;55.578;37.902;2022-11-15T06:09:36;5.20;;;1.67;;
62679;SDS011;48746;55.578;37.902;2022-11-15T06:12:20;10.40;;;1.90;;
62679;SDS011;48746;55.578;37.902;2022-11-15T06:15:05;17.08;;;2.63;;
62679;SDS011;48746;55.578;37.902;2022-11-15T06:17:50;8.57;;;2.45;;
62679;SDS011;48746;55.578;37.902;2022-11-15T06:24:01;8.75;;;2.67;;
62679;SDS011;48746;55.578;37.902;2022-11-15T06:26:46;10.20;;;1.77;;
62679;SDS011;48746;55.578;37.902;2022-11-15T06:29:31;6.85;;;2.08;;
62679;SDS011;48746;55.578;37.902;2022-11-15T06:32:15;5.22;;;1.45;;
62679;SDS011;48746;55.578;37.902;2022-11-15T06:35:01;7.88;;;1.40;;
62679;SDS011;48746;55.578;37.902;2022-11-15T06:37:46;16.13;;;3.13;;
62679;SDS011;48746;55.578;37.902;2022-11-15T06:40:35;9.40;;;1.60;;
62679;SDS011;48746;55.578;37.902;2022-11-15T06:43:20;11.43;;;1.33;;
62679;SDS011;48746;55.578;37.902;2022-11-15T06:46:06;8.85;;;1.92;;
62679;SDS011;48746;55.578;37.902;2022-11-15T06:48:51;7.45;;;1.50;;
62679;SDS011;48746;55.578;37.902;2022-11-15T06:51:39;1.95;;;1.02;;
62679;SDS011;48746;55.578;37.902;2022-11-15T06:54:24;4.75;;;1.70;;
62679;SDS011;48746;55.578;37.902;2022-11-15T06:57:09;13.95;;;1.83;;
62679;SDS011;48746;55.578;37.902;2022-11-15T07:03:19;7.82;;;2.40;;
62679;SDS011;48746;55.578;37.902;2022-11-15T07:06:04;4.10;;;2.13;;
62679;SDS011;48746;55.578;37.902;2022-11-15T07:08:50;7.07;;;2.05;;
62679;SDS011;48746;55.578;37.902;2022-11-15T07:11:35;18.15;;;2.50;;
62679;SDS011;48746;55.578;37.902;2022-11-15T07:14:20;13.85;;;2.38;;
62679;SDS011;48746;55.578;37.902;2022-11-15T07:17:04;10.82;;;1.73;;
62679;SDS011;48746;55.578;37.902;2022-11-15T07:19:52;12.27;;;2.20;;
62679;SDS011;48746;55.578;37.902;2022-11-15T07:22:37;12.02;;;3.85;;
62679;SDS011;48746;55.578;37.902;2022-11-15T07:25:22;7.80;;;1.85;;
62679;SDS011;48746;55.578;37.902;2022-11-15T07:28:06;11.75;;;2.03;;
62679;SDS011;48746;55.578;37.902;2022-11-15T07:30:55;5.10;;;1.90;;
62679;SDS011;48746;55.578;37.902;2022-11-15T07:33:39;13.00;;;1.58;;
62679;SDS011;48746;55.578;37.902;2022-11-15T07:36:25;10.27;;;1.55;;
62679;SDS011;48746;55.578;37.902;2022-11-15T07:39:09;4.68;;;1.58;;
62679;SDS011;48746;55.578;37.902;2022-11-15T07:41:56;8.80;;;1.65;;
62679;SDS011;48746;55.578;37.902;2022-11-15T07:45:00;9.38;;;1.50;;
62679;SDS011;48746;55.578;37.902;2022-11-15T07:47:45;14.73;;;1.63;;
62679;SDS011;48746;55.578;37.902;2022-11-15T07:53:57;6.03;;;1.58;;
62679;SDS011;48746;55.578;37.902;2022-11-15T07:56:42;13.25;;;1.85;;
62679;SDS011;48746;55.578;37.902;2022-11-15T07:59:26;9.93;;;1.83;;
62679;SDS011;48746;55.578;37.902;2022-11-15T08:02:11;18.10;;;2.33;;
62679;SDS011;48746;55.578;37.902;2022-11-15T08:04:56;8.20;;;2.70;;
62679;SDS011;48746;55.578;37.902;2022-11-15T08:07:41;17.38;;;3.58;;
62679;SDS011;48746;55.578;37.902;2022-11-15T08:10:29;26.60;;;8.75;;
62679;SDS011;48746;55.578;37.902;2022-11-15T08:13:14;10.85;;;2.35;;
62679;SDS011;48746;55.578;37.902;2022-11-15T08:16:00;5.65;;;1.90;;
62679;SDS011;48746;55.578;37.902;2022-11-15T08:18:45;5.57;;;1.40;;
62679;SDS011;48746;55.578;37.902;2022-11-15T08:21:33;7.22;;;1.75;;
62679;SDS011;48746;55.578;37.902;2022-11-15T08:24:20;6.05;;;2.17;;
62679;SDS011;48746;55.578;37.902;2022-11-15T08:27:04;7.55;;;1.95;;
62679;SDS011;48746;55.578;37.902;2022-11-15T08:33:27;16.67;;;2.38;;
62679;SDS011;48746;55.578;37.902;2022-11-15T08:36:13;6.03;;;1.80;;
62679;SDS011;48746;55.578;37.902;2022-11-15T08:39:00;11.15;;;2.15;;
62679;SDS011;48746;55.578;37.902;2022-11-15T08:41:45;12.15;;;2.72;;
62679;SDS011;48746;55.578;37.902;2022-11-15T08:44:30;6.28;;;1.75;;
62679;SDS011;48746;55.578;37.902;2022-11-15T08:47:15;4.78;;;1.67;;
62679;SDS011;48746;55.578;37.902;2022-11-15T08:50:02;12.02;;;1.80;;
62679;SDS011;48746;55.578;37.902;2022-11-15T08:52:47;5.28;;;1.80;;
62679;SDS011;48746;55.578;37.902;2022-11-15T08:55:32;4.55;;;1.65;;
62679;SDS011;48746;55.578;37.902;2022-11-15T08:58:20;7.78;;;2.38;;
62679;SDS011;48746;55.578;37.902;2022-11-15T09:01:14;6.43;;;1.80;;
62679;SDS011;48746;55.578;37.902;2022-11-15T09:04:00;14.68;;;1.85;;
62679;SDS011;48746;55.578;37.902;2022-11-15T09:06:47;14.30;;;2.28;;
62679;SDS011;48746;55.578;37.902;2022-11-15T09:09:34;8.32;;;2.33;;
62679;SDS011;48746;55.578;37.902;2022-11-15T09:12:19;6.25;;;1.75;;
62679;SDS011;48746;55.578;37.902;2022-11-15T09:15:04;11.63;;;2.45;;
62679;SDS011;48746;55.578;37.902;2022-11-15T09:17:50;11.85;;;4.10;;
62679;SDS011;48746;55.578;37.902;2022-11-15T09:20:37;12.32;;;2.55;;
62679;SDS011;48746;55.578;37.902;2022-11-15T09:23:23;16.13;;;2.80;;
62679;SDS011;48746;55.578;37.902;2022-11-15T09:26:08;8.80;;;1.92;;
62679;SDS011;48746;55.578;37.902;2022-11-15T09:28:53;10.75;;;2.08;;
62679;SDS011;48746;55.578;37.902;2022-11-15T09:31:37;7.15;;;1.60;;
62679;SDS011;48746;55.578;37.902;2022-11-15T09:34:22;13.57;;;2.05;;
62679;SDS011;48746;55.578;37.902;2022-11-15T09:37:07;19.00;;;2.72;;
62679;SDS011;48746;55.578;37.902;2022-11-15T09:39:52;22.92;;;2.40;;
62679;SDS011;48746;55.578;37.902;2022-11-15T09:45:31;14.43;;;2.30;;
62679;SDS011;48746;55.578;37.902;2022-11-15T09:54:31;8.57;;;1.80;;
62679;SDS011;48746;55.578;37.902;2022-11-15T09:57:09;6.32;;;1.88;;
62679;SDS011;48746;55.578;37.902;2022-11-15T10:05:12;12.48;;;2.33;;
62679;SDS011;48746;55.578;37.902;2022-11-15T10:13:04;19.17;;;2.15;;
62679;SDS011;48746;55.578;37.902;2022-11-15T10:15:30;13.45;;;2.03;;
62679;SDS011;48746;55.578;37.902;2022-11-15T10:23:52;13.10;;;2.40;;
62679;SDS011;48746;55.578;37.902;2022-11-15T10:26:18;9.30;;;2.05;;
62679;SDS011;48746;55.578;37.902;2022-11-15T10:28:44;11.38;;;2.17;;
62679;SDS011;48746;55.578;37.902;2022-11-15T10:31:27;7.75;;;2.20;;
62679;SDS011;48746;55.578;37.902;2022-11-15T10:33:59;7.47;;;1.70;;
62679;SDS011;48746;55.578;37.902;2022-11-15T10:36:36;5.97;;;2.15;;
62679;SDS011;48746;55.578;37.902;2022-11-15T10:39:03;9.35;;;2.13;;
62679;SDS011;48746;55.578;37.902;2022-11-15T10:41:30;3.83;;;1.60;;
62679;SDS011;48746;55.578;37.902;2022-11-15T10:44:08;11.55;;;2.10;;
62679;SDS011;48746;55.578;37.902;2022-11-15T10:46:41;5.38;;;1.65;;
62679;SDS011;48746;55.578;37.902;2022-11-15T10:49:18;9.77;;;2.30;;
62679;SDS011;48746;55.578;37.902;2022-11-15T10:51:48;6.85;;;2.00;;
62679;SDS011;48746;55.578;37.902;2022-11-15T10:57:22;10.10;;;1.92;;
62679;SDS011;48746;55.578;37.902;2022-11-15T10:59:55;13.45;;;2.30;;
62679;SDS011;48746;55.578;37.902;2022-11-15T11:04:56;11.13;;;2.35;;
62679;SDS011;48746;55.578;37.902;2022-11-15T11:07:23;6.90;;;1.73;;
62679;SDS011;48746;55.578;37.902;2022-11-15T11:13:13;8.20;;;2.17;;
62679;SDS011;48746;55.578;37.902;2022-11-15T11:15:39;6.25;;;1.92;;
62679;SDS011;48746;55.578;37.902;2022-11-15T11:18:10;3.92;;;1.58;;
62679;SDS011;48746;55.578;37.902;2022-11-15T11:23:59;9.75;;;2.80;;
62679;SDS011;48746;55.578;37.902;2022-11-15T11:29:32;18.05;;;2.10;;
62679;SDS011;48746;55.578;37.902;2022-11-15T11:40:13;4.03;;;1.88;;
62679;SDS011;48746;55.578;37.902;2022-11-15T11:51:23;9.63;;;1.83;;
62679;SDS011;48746;55.578;37.902;2022-11-15T11:53:54;3.25;;;1.58;;
62679;SDS011;48746;55.578;37.902;2022-11-15T11:58:57;22.33;;;1.95;;
62679;SDS011;48746;55.578;37.902;2022-11-15T12:01:29;7.78;;;1.98;;
62679;SDS011;48746;55.578;37.902;2022-11-15T12:04:03;6.40;;;1.95;;
62679;SDS011;48746;55.578;37.902;2022-11-15T12:09:32;5.38;;;1.45;;
62679;SDS011;48746;55.578;37.902;2022-11-15T12:14:45;9.40;;;1.35;;
62679;SDS011;48746;55.578;37.902;2022-11-15T12:17:16;7.20;;;2.17;;
62679;SDS011;48746;55.578;37.902;2022-11-15T12:19:56;8.77;;;1.55;;
62679;SDS011;48746;55.578;37.902;2022-11-15T12:25:00;8.25;;;2.10;;
62679;SDS011;48746;55.578;37.902;2022-11-15T12:27:38;11.32;;;2.80;;
62679;SDS011;48746;55.578;37.902;2022-11-15T12:30:28;12.23;;;1.75;;
62679;SDS011;48746;55.578;37.902;2022-11-15T12:38:54;12.23;;;2.25;;
62679;SDS011;48746;55.578;37.902;2022-11-15T12:41:25;9.32;;;1.75;;
62679;SDS011;48746;55.578;37.902;2022-11-15T12:43:56;14.38;;;4.13;;
62679;SDS011;48746;55.578;37.902;2022-11-15T13:13:13;5.00;;;1.85;;
62679;SDS011;48746;55.578;37.902;2022-11-15T13:16:10;6.88;;;2.17;;
62679;SDS011;48746;55.578;37.902;2022-11-15T13:18:40;6.30;;;2.15;;
62679;SDS011;48746;55.578;37.902;2022-11-15T13:24:28;5.55;;;1.40;;
62679;SDS011;48746;55.578;37.902;2022-11-15T13:26:54;8.07;;;2.15;;
62679;SDS011;48746;55.578;37.902;2022-11-15T13:29:21;11.25;;;2.40;;
62679;SDS011;48746;55.578;37.902;2022-11-15T13:31:48;7.25;;;2.33;;
62679;SDS011;48746;55.578;37.902;2022-11-15T13:36:48;8.00;;;2.20;;
62679;SDS011;48746;55.578;37.902;2022-11-15T13:39:23;6.95;;;1.55;;
62679;SDS011;48746;55.578;37.902;2022-11-15T13:42:02;8.52;;;2.28;;
62679;SDS011;48746;55.578;37.902;2022-11-15T13:44:30;7.82;;;2.28;;
62679;SDS011;48746;55.578;37.902;2022-11-15T13:47:04;7.55;;;2.35;;
62679;SDS011;48746;55.578;37.902;2022-11-15T13:52:47;20.02;;;6.43;;
62679;SDS011;48746;55.578;37.902;2022-11-15T13:57:55;11.40;;;4.28;;
62679;SDS011;48746;55.578;37.902;2022-11-15T14:03:31;9.10;;;3.00;;
62679;SDS011;48746;55.578;37.902;2022-11-15T14:08:39;17.05;;;5.07;;
62679;SDS011;48746;55.578;37.902;2022-11-15T14:14:13;12.75;;;4.30;;
62679;SDS011;48746;55.578;37.902;2022-11-15T14:16:44;8.88;;;4.03;;
62679;SDS011;48746;55.578;37.902;2022-11-15T14:19:13;11.25;;;4.88;;
62679;SDS011;48746;55.578;37.902;2022-11-15T14:27:18;8.75;;;2.88;;
62679;SDS011;48746;55.578;37.902;2022-11-15T14:29:54;9.75;;;2.80;;
62679;SDS011;48746;55.578;37.902;2022-11-15T14:32:22;6.78;;;2.60;;
62679;SDS011;48746;55.578;37.902;2022-11-15T14:34:59;8.55;;;2.83;;
62679;SDS011;48746;55.578;37.902;2022-11-15T14:37:30;10.13;;;3.25;;
62679;SDS011;48746;55.578;37.902;2022-11-15T14:40:04;10.65;;;3.08;;
62679;SDS011;48746;55.578;37.902;2022-11-15T14:44:57;6.50;;;2.88;;
62679;SDS011;48746;55.578;37.902;2022-11-15T14:47:24;11.07;;;3.20;;
62679;SDS011;48746;55.578;37.902;2022-11-15T14:49:53;7.85;;;3.30;;
62679;SDS011;48746;55.578;37.902;2022-11-15T14:52:26;11.45;;;3.45;;
62679;SDS011;48746;55.578;37.902;2022-11-15T14:55:00;11.85;;;3.50;;
62679;SDS011;48746;55.578;37.902;2022-11-15T14:57:29;10.18;;;3.38;;
62679;SDS011;48746;55.578;37.902;2022-11-15T14:59:58;9.23;;;3.95;;
62679;SDS011;48746;55.578;37.902;2022-11-15T15:02:38;10.32;;;4.53;;
62679;SDS011;48746;55.578;37.902;2022-11-15T15:07:42;10.75;;;3.58;;
62679;SDS011;48746;55.578;37.902;2022-11-15T15:13:19;8.43;;;3.13;;
62679;SDS011;48746;55.578;37.902;2022-11-15T15:15:49;10.00;;;3.78;;
62679;SDS011;48746;55.578;37.902;2022-11-15T15:18:16;10.05;;;3.65;;
62679;SDS011;48746;55.578;37.902;2022-11-15T15:23:51;10.15;;;3.13;;
62679;SDS011;48746;55.578;37.902;2022-11-15T15:26:19;10.73;;;3.85;;
62679;SDS011;48746;55.578;37.902;2022-11-15T15:28:46;10.45;;;3.75;;
62679;SDS011;48746;55.578;37.902;2022-11-15T15:31:14;8.25;;;3.33;;
62679;SDS011;48746;55.578;37.902;2022-11-15T15:33:41;10.73;;;3.55;;
62679;SDS011;48746;55.578;37.902;2022-11-15T15:36:14;7.85;;;2.83;;
62679;SDS011;48746;55.578;37.902;2022-11-15T15:38:43;11.60;;;3.35;;
62679;SDS011;48746;55.578;37.902;2022-11-15T15:44:16;4.72;;;3.05;;
62679;SDS011;48746;55.578;37.902;2022-11-15T15:46:42;7.65;;;3.17;;
62679;SDS011;48746;55.578;37.902;2022-11-15T15:49:09;4.82;;;2.53;;
62679;SDS011;48746;55.578;37.902;2022-11-15T15:51:35;8.52;;;2.78;;
62679;SDS011;48746;55.578;37.902;2022-11-15T15:54:01;5.43;;;2.67;;
62679;SDS011;48746;55.578;37.902;2022-11-15T15:56:27;7.45;;;3.30;;
62679;SDS011;48746;55.578;37.902;2022-11-15T15:58:54;7.72;;;3.10;;
62679;SDS011;48746;55.578;37.902;2022-11-15T16:01:21;7.15;;;3.40;;
62679;SDS011;48746;55.578;37.902;2022-11-15T16:03:47;11.32;;;3.13;;
62679;SDS011;48746;55.578;37.902;2022-11-15T16:09:00;11.88;;;3.65;;
62679;SDS011;48746;55.578;37.902;2022-11-15T16:11:26;8.75;;;2.72;;
62679;SDS011;48746;55.578;37.902;2022-11-15T16:13:53;9.52;;;2.90;;
62679;SDS011;48746;55.578;37.902;2022-11-15T16:16:19;5.47;;;2.80;;
62679;SDS011;48746;55.578;37.902;2022-11-15T16:18:47;8.65;;;3.20;;
62679;SDS011;48746;55.578;37.902;2022-11-15T16:21:13;11.57;;;3.33;;
62679;SDS011;48746;55.578;37.902;2022-11-15T16:23:39;9.77;;;4.20;;
62679;SDS011;48746;55.578;37.902;2022-11-15T16:26:20;13.32;;;3.95;;
62679;SDS011;48746;55.578;37.902;2022-11-15T16:28:50;7.43;;;3.63;;
62679;SDS011;48746;55.578;37.902;2022-11-15T16:31:16;10.43;;;3.58;;
62679;SDS011;48746;55.578;37.902;2022-11-15T16:33:44;9.85;;;4.13;;
62679;SDS011;48746;55.578;37.902;2022-11-15T16:36:33;11.68;;;3.88;;
62679;SDS011;48746;55.578;37.902;2022-11-15T16:38:59;10.77;;;4.60;;
62679;SDS011;48746;55.578;37.902;2022-11-15T16:41:25;8.02;;;3.90;;
62679;SDS011;48746;55.578;37.902;2022-11-15T16:43:51;10.00;;;4.03;;
62679;SDS011;48746;55.578;37.902;2022-11-15T16:46:20;7.70;;;4.28;;
62679;SDS011;48746;55.578;37.902;2022-11-15T16:48:48;11.45;;;5.55;;
62679;SDS011;48746;55.578;37.902;2022-11-15T16:51:15;10.82;;;5.70;;
62679;SDS011;48746;55.578;37.902;2022-11-15T16:53:42;15.68;;;6.88;;
62679;SDS011;48746;55.578;37.902;2022-11-15T16:56:28;17.35;;;8.23;;
62679;SDS011;48746;55.578;37.902;2022-11-15T16:58:55;19.90;;;9.15;;
62679;SDS011;48746;55.578;37.902;2022-11-15T17:01:26;16.27;;;8.60;;
62679;SDS011;48746;55.578;37.902;2022-11-15T17:03:54;20.85;;;8.90;;
62679;SDS011;48746;55.578;37.902;2022-11-15T17:06:20;16.25;;;7.30;;
62679;SDS011;48746;55.578;37.902;2022-11-15T17:08:48;19.17;;;8.30;;
62679;SDS011;48746;55.578;37.902;2022-11-15T17:14:21;16.33;;;7.75;;
62679;SDS011;48746;55.578;37.902;2022-11-15T17:16:47;13.35;;;7.82;;
62679;SDS011;48746;55.578;37.902;2022-11-15T17:19:14;13.85;;;7.28;;
62679;SDS011;48746;55.578;37.902;2022-11-15T17:21:44;14.95;;;7.25;;
62679;SDS011;48746;55.578;37.902;2022-11-15T17:24:11;15.15;;;7.32;;
62679;SDS011;48746;55.578;37.902;2022-11-15T17:26:37;13.30;;;6.50;;
62679;SDS011;48746;55.578;37.902;2022-11-15T17:29:04;9.32;;;5.40;;
62679;SDS011;48746;55.578;37.902;2022-11-15T17:34:39;11.20;;;5.10;;
62679;SDS011;48746;55.578;37.902;2022-11-15T17:37:05;10.48;;;6.03;;
62679;SDS011;48746;55.578;37.902;2022-11-15T17:39:35;14.43;;;6.40;;
62679;SDS011;48746;55.578;37.902;2022-11-15T17:42:01;13.00;;;5.55;;
62679;SDS011;48746;55.578;37.902;2022-11-15T17:44:27;10.40;;;4.50;;
62679;SDS011;48746;55.578;37.902;2022-11-15T17:46:53;10.55;;;4.90;;
62679;SDS011;48746;55.578;37.902;2022-11-15T17:49:19;10.68;;;4.63;;
62679;SDS011;48746;55.578;37.902;2022-11-15T17:51:45;15.38;;;6.05;;
62679;SDS011;48746;55.578;37.902;2022-11-15T17:54:12;12.93;;;6.20;;
62679;SDS011;48746;55.578;37.902;2022-11-15T17:56:39;13.93;;;5.88;;
62679;SDS011;48746;55.578;37.902;2022-11-15T17:59:05;12.77;;;5.55;;
62679;SDS011;48746;55.578;37.902;2022-11-15T18:04:40;5.07;;;3.00;;
62679;SDS011;48746;55.578;37.902;2022-11-15T18:07:06;9.18;;;3.50;;
62679;SDS011;48746;55.578;37.902;2022-11-15T18:09:36;7.00;;;3.50;;
62679;SDS011;48746;55.578;37.902;2022-11-15T18:12:03;6.75;;;3.60;;
62679;SDS011;48746;55.578;37.902;2022-11-15T18:14:29;7.15;;;3.45;;
62679;SDS011;48746;55.578;37.902;2022-11-15T18:16:55;10.88;;;4.25;;
62679;SDS011;48746;55.578;37.902;2022-11-15T18:19:21;7.95;;;4.38;;
62679;SDS011;48746;55.578;37.902;2022-11-15T18:21:48;11.45;;;4.10;;
62679;SDS011;48746;55.578;37.902;2022-11-15T18:24:29;8.32;;;4.05;;
62679;SDS011;48746;55.578;37.902;2022-11-15T18:26:57;11.90;;;4.90;;
62679;SDS011;48746;55.578;37.902;2022-11-15T18:29:27;9.88;;;3.92;;
62679;SDS011;48746;55.578;37.902;2022-11-15T18:31:54;9.88;;;4.28;;
62679;SDS011;48746;55.578;37.902;2022-11-15T18:34:21;7.93;;;4.22;;
62679;SDS011;48746;55.578;37.902;2022-11-15T18:36:50;11.48;;;4.75;;
62679;SDS011;48746;55.578;37.902;2022-11-15T18:39:17;13.30;;;4.40;;
62679;SDS011;48746;55.578;37.902;2022-11-15T18:41:44;8.40;;;4.22;;
62679;SDS011;48746;55.578;37.902;2022-11-15T18:44:11;14.43;;;4.78;;
62679;SDS011;48746;55.578;37.902;2022-11-15T18:46:37;12.25;;;4.57;;
62679;SDS011;48746;55.578;37.902;2022-11-15T18:49:04;9.43;;;4.35;;
62679;SDS011;48746;55.578;37.902;2022-11-15T18:51:34;14.25;;;4.35;;
62679;SDS011;48746;55.578;37.902;2022-11-15T18:54:07;11.75;;;4.82;;
62679;SDS011;48746;55.578;37.902;2022-11-15T18:56:34;14.05;;;4.75;;
62679;SDS011;48746;55.578;37.902;2022-11-15T18:59:01;9.10;;;4.45;;
62679;SDS011;48746;55.578;37.902;2022-11-15T19:04:34;14.15;;;5.95;;
62679;SDS011;48746;55.578;37.902;2022-11-15T19:07:00;14.77;;;5.60;;
62679;SDS011;48746;55.578;37.902;2022-11-15T19:12:31;14.32;;;6.40;;
62679;SDS011;48746;55.578;37.902;2022-11-15T19:14:57;14.88;;;6.72;;
62679;SDS011;48746;55.578;37.902;2022-11-15T19:17:23;13.27;;;7.25;;
62679;SDS011;48746;55.578;37.902;2022-11-15T19:22:58;19.42;;;8.30;;
62679;SDS011;48746;55.578;37.902;2022-11-15T19:25:24;21.33;;;9.20;;
62679;SDS011;48746;55.578;37.902;2022-11-15T19:27:53;22.48;;;9.55;;
62679;SDS011;48746;55.578;37.902;2022-11-15T19:33:26;23.50;;;10.63;;
62679;SDS011;48746;55.578;37.902;2022-11-15T19:35:58;27.58;;;10.98;;
62679;SDS011;48746;55.578;37.902;2022-11-15T19:38:25;25.23;;;11.35;;
62679;SDS011;48746;55.578;37.902;2022-11-15T19:43:58;27.73;;;12.32;;
62679;SDS011;48746;55.578;37.902;2022-11-15T19:46:24;35.92;;;13.27;;
62679;SDS011;48746;55.578;37.902;2022-11-15T19:48:51;34.53;;;12.75;;
62679;SDS011;48746;55.578;37.902;2022-11-15T19:51:18;35.80;;;13.77;;